• Join FlightAware (Why Join?)
  • Login
  • US Flag 
01:50AM EDT


 

Airport Tracker/Info


-or-


 

Live Flight TrackerFlight Track Log ✈ AWE3287 ✈ 09-May-2013 ✈ KMHT - KPHL

Flight Track Log - Related Links

Times and Time Zones

All times are in EDT time to prevent confusion due to time zone crossing. See the AWE3287 flight status page for this flight to view local times or setup timezone preferences in your user account.

Time Position Orientation Groundspeed Altitude Reporting Facility
EDT Latitude Longitude Course Direction KTS MPH feet Rate Location/Type
11:48AM 42.9500 -71.4167 270° West 154 177 1,100  Level KA90
11:49AM 42.9833 -71.4000 20° North 171 197 2,100 1,440 Climbing KA90
11:50AM 42.9333 -71.7874 270° West  Level FlightAware Approximate
11:50AM 43.0375 -71.3833 13° North 234 269 3,500  Level Boston Center
11:51AM 42.9500 -71.9032 270° West  Level FlightAware Approximate
11:51AM 43.0858 -71.4508 314° West 225 259 6,300  Level Boston Center
11:52AM 42.9500 -72.0219 270° West  Level FlightAware Approximate
11:52AM 43.1264 -71.5525 299° West 256 295 9,000  Level Boston Center
11:53AM 42.9501 -72.1407 270° West  Level FlightAware Approximate
11:53AM 43.1167 -71.6467 262° West 277 319 11,600  Level Boston Center
11:54AM 43.1111 -71.7744 267° West 289 333 14,000 2,160 Climbing Boston Center
11:55AM 43.1033 -71.8769 264° West 308 354 16,000 1,920 Climbing Boston Center
11:56AM 43.0936 -72.0136 264° West 322 371 17,900 1,800 Climbing Boston Center
11:57AM 43.0856 -72.1303 265° West 336 387 19,600 1,620 Climbing Boston Center
11:58AM 43.0775 -72.2581 265° West 341 392 21,200 1,500 Climbing Boston Center
11:59AM 43.0736 -72.3889 268° West 346 398 22,700 1,140 Climbing Boston Center
12:00PM 43.0653 -72.5253 265° West 356 410 23,500 1,200 Climbing Boston Center
12:01PM 43.0442 -72.6786 259° West 371 427 25,200 1,980 Climbing Boston Center
12:02PM 43.0314 -72.8178 263° West 371 427 27,500 1,380 Climbing Boston Center
12:03PM 42.9850 -72.9397 243° Southwest 363 418 28,000 900 Climbing Boston Center
12:04PM 42.9447 -73.0528 244° Southwest 370 426 29,400 960 Climbing Boston Center
12:05PM 42.8961 -73.1797 242° Southwest 370 426 30,000 300 Climbing Boston Center
12:06PM 42.8558 -73.2814 242° Southwest 375 432 30,000  Level Boston Center
12:07PM 42.7961 -73.4361 242° Southwest 380 437 30,000  Level Boston Center
12:08PM 42.7450 -73.5625 241° Southwest 385 443 30,000  Level Boston Center
12:09PM 42.6958 -73.6886 242° Southwest 385 443 30,000  Level Boston Center
12:10PM 42.6422 -73.8175 241° Southwest 385 443 30,000  Level Boston Center
12:11PM 42.5883 -73.9572 242° Southwest 385 443 30,000 -240 Level Boston Center
12:12PM 42.5386 -74.0828 242° Southwest 390 449 29,600 -1,080 Descending Boston Center
12:13PM 42.4867 -74.2083 241° Southwest 390 449 27,900 -1,500 Descending Boston Center
12:14PM 42.4475 -74.3056 241° Southwest 385 443 26,600 -960 Descending Boston Center
12:15PM 42.3933 -74.4361 241° Southwest 379 436 26,000 -300 Descending Boston Center
12:16PM 42.3453 -74.5497 240° Southwest 367 422 26,000 -600 Level Boston Center
12:17PM 42.2972 -74.6744 243° Southwest 354 407 24,800 -1,320 Descending Boston Center
12:18PM 42.2489 -74.7878 240° Southwest 347 399 23,400 -1,440 Descending Boston Center
12:19PM 42.1803 -74.8775 224° Southwest 342 394 22,000 -1,200 Descending Boston Center
12:20PM 42.1119 -74.9617 222° Southwest 342 394 21,000 -960 Descending Boston Center
12:21PM 41.9922 -75.1017 221° Southwest 335 386 19,400 -720 Descending New York Center
12:22PM 41.9103 -75.1800 215° Southwest 330 380 19,000 -240 Descending New York Center
12:23PM 41.8328 -75.2444 212° Southwest 330 380 19,000 -60 Level New York Center
12:24PM 41.7619 -75.3008 211° Southwest 330 380 18,900 -1,080 Descending New York Center
12:25PM 41.6761 -75.3700 211° Southwest 330 380 16,900 -1,860 Descending New York Center
12:26PM 41.6031 -75.4286 211° Southwest 323 372 15,200 -1,680 Descending New York Center
12:27PM 41.5278 -75.4872 210° Southwest 323 372 13,600 -1,620 Descending New York Center
12:28PM 41.4631 -75.5408 212° Southwest 323 372 12,100 -840 Descending New York Center
12:29PM 41.3922 -75.5967 211° Southwest 311 358 12,000 -60 Descending New York Center
12:30PM 41.3189 -75.6547 211° Southwest 311 358 12,000  Level New York Center
12:31PM 41.2342 -75.6900 197° South 298 343 12,000  Level New York Center
12:32PM 41.1508 -75.6894 180° South 298 343 12,000  Level New York Center
12:33PM 41.0681 -75.6781 174° South 298 343 12,000  Level New York Center
12:34PM 40.9953 -75.6206 149° Southeast 301 346 12,000  Level New York Center
12:35PM 40.9178 -75.5794 158° South 301 346 12,000  Level New York Center
12:36PM 40.8439 -75.5575 167° South 301 346 12,000  Level New York Center
12:37PM 40.7617 -75.5300 166° South 301 346 12,000  Level New York Center
12:38PM 40.6711 -75.5017 167° South 306 352 12,000  Level New York Center
12:39PM 40.5867 -75.4742 166° South 306 352 12,000 -660 Level New York Center
12:40PM 40.5042 -75.4494 167° South 306 352 10,800 -1,020 Descending New York Center
12:41PM 40.4308 -75.4117 159° South 306 352 10,000 -1,200 Descending New York Center
12:42PM 40.3622 -75.3525 147° Southeast 300 345 8,500 -1,620 Descending New York Center
12:43PM 40.2958 -75.2911 145° Southeast 294 338 6,800 -1,320 Descending New York Center
12:44PM 40.2375 -75.2383 145° Southeast 289 333 6,000 -420 Descending New York Center
12:45PM 40.1736 -75.1608 137° Southeast 289 333 6,000  Level New York Center
12:46PM 40.1278 -75.1036 136° Southeast 269 310 6,000  Level New York Center
12:47PM 40.0800 -75.0436 136° Southeast 230 265 6,000  Level New York Center
12:48PM 40.0667 -75.0167 123° Southeast 217 250 6,000 -900 Level Philadelphia TRACON
12:49PM 40.0167 -75.0000 166° South 192 221 4,800 -1,380 Descending Philadelphia TRACON
12:50PM 39.9667 -75.0167 194° South 187 215 3,000 -1,320 Descending Philadelphia TRACON
12:51PM 39.9167 -75.0333 194° South 174 200 2,100 -480 Descending Philadelphia TRACON
12:52PM 39.9000 -75.0833 247° West 150 173 2,100  Level Philadelphia TRACON